Time;durP1;ratioP1;P1;durP2;ratioP2;P2;SDS_P1;SDS_P2;PMS_P1;PMS_P2;Temp;Humidity;BMP_temperature;BMP_pressure;BME280_temperature;BME280_humidity;BME280_pressure;Samples;Min_cycle;Max_cycle;Signal;HPM_P1;HPM_P2
2024/04/20 00:01:22;;;;;;;21.47;3.80;;;7.30;1.00;;;;;;5194521;27;39785;-81
2024/04/20 00:03:57;;;;;;;21.03;2.77;;;7.30;1.00;;;;;;5197321;27;39854;-81
2024/04/20 00:06:23;;;;;;;27.73;4.37;;;7.40;1.00;;;;;;5205384;27;36638;-80
2024/04/20 00:08:50;;;;;;;23.90;3.77;;;7.40;1.00;;;;;;5211441;27;40135;-81
2024/04/20 00:11:16;;;;;;;23.73;2.77;;;7.40;1.00;;;;;;5198105;27;37779;-82
2024/04/20 00:13:44;;;;;;;18.67;4.00;;;7.40;1.00;;;;;;5208799;27;38919;-80
2024/04/20 00:16:13;;;;;;;21.13;3.43;;;7.40;1.00;;;;;;5199427;27;37059;-81
2024/04/20 00:18:39;;;;;;;23.43;3.23;;;7.40;1.00;;;;;;5193345;27;39245;-81
2024/04/20 00:21:05;;;;;;;19.03;2.60;;;7.40;99.90;;;;;;5200791;27;38885;-81
2024/04/20 00:23:31;;;;;;;15.30;2.30;;;7.40;99.90;;;;;;5196467;27;38811;-80
2024/04/20 00:26:03;;;;;;;11.77;2.37;;;7.40;99.90;;;;;;5188649;27;37079;-79
2024/04/20 00:28:29;;;;;;;16.40;2.33;;;7.40;1.00;;;;;;5174702;27;48617;-79
2024/04/20 00:31:02;;;;;;;18.63;2.47;;;7.40;99.90;;;;;;5183438;27;38589;-79
2024/04/20 00:33:29;;;;;;;18.23;3.03;;;7.50;1.00;;;;;;5178184;27;47901;-80
2024/04/20 00:35:55;;;;;;;16.70;2.60;;;7.50;1.00;;;;;;5174615;27;38116;-79
2024/04/20 00:38:21;;;;;;;17.40;3.03;;;7.50;1.00;;;;;;5187723;27;39278;-80
2024/04/20 00:40:54;;;;;;;18.17;3.30;;;7.50;16.30;;;;;;5188348;27;37069;-80
2024/04/20 00:43:21;;;;;;;17.90;2.60;;;7.50;1.00;;;;;;5183543;27;39747;-80
2024/04/20 00:45:47;;;;;;;18.93;3.63;;;7.60;1.00;;;;;;5178850;27;37818;-80
2024/04/20 00:48:15;;;;;;;23.50;3.77;;;7.50;1.00;;;;;;5173784;27;38640;-80
2024/04/20 00:50:42;;;;;;;23.10;3.30;;;7.50;1.00;;;;;;5182557;27;36823;-80
2024/04/20 00:53:10;;;;;;;20.50;3.10;;;7.50;1.00;;;;;;5184196;27;38929;-80
2024/04/20 00:55:37;;;;;;;28.13;3.83;;;7.40;1.00;;;;;;5184810;27;37566;-81
2024/04/20 00:58:06;;;;;;;19.50;2.83;;;7.30;1.00;;;;;;5190146;27;37689;-81
2024/04/20 01:03:09;;;;;;;28.50;4.13;;;7.10;1.00;;;;;;5613883;22;20244;-82
2024/04/20 01:05:35;;;;;;;17.50;3.03;;;7.00;1.00;;;;;;5184041;27;35717;-81
2024/04/20 01:08:02;;;;;;;24.50;3.57;;;7.00;1.00;;;;;;5182021;27;39705;-82
2024/04/20 01:10:29;;;;;;;20.57;2.40;;;7.00;1.00;;;;;;5191239;27;38345;-82
2024/04/20 01:13:03;;;;;;;19.13;3.47;;;7.00;1.00;;;;;;5188921;27;36875;-82
2024/04/20 01:15:38;;;;;;;14.43;2.47;;;7.00;1.00;;;;;;5183773;27;46925;-82
2024/04/20 01:18:05;;;;;;;21.93;3.20;;;7.10;1.00;;;;;;5181150;27;41043;-82
2024/04/20 01:20:33;;;;;;;19.97;3.10;;;7.10;1.00;;;;;;5191546;27;38642;-82
2024/04/20 01:23:02;;;;;;;19.53;3.00;;;7.10;1.00;;;;;;5182688;27;37250;-82
2024/04/20 01:25:29;;;;;;;22.13;3.57;;;7.10;1.00;;;;;;5207166;27;46173;-82
2024/04/20 01:27:55;;;;;;;25.53;4.97;;;7.20;1.00;;;;;;5189312;27;37489;-82
2024/04/20 01:30:21;;;;;;;21.30;3.17;;;7.20;1.00;;;;;;5178863;27;38435;-81
2024/04/20 01:32:48;;;;;;;24.20;3.60;;;7.20;1.00;;;;;;5189582;27;39051;-81
2024/04/20 01:35:14;;;;;;;16.10;2.70;;;7.20;1.00;;;;;;5182452;27;37398;-82
2024/04/20 01:37:40;;;;;;;17.67;2.80;;;7.30;1.00;;;;;;5180758;27;37602;-82
2024/04/20 01:40:06;;;;;;;16.00;3.07;;;7.30;1.00;;;;;;5189973;27;36358;-82
2024/04/20 01:42:35;;;;;;;20.40;3.47;;;7.30;1.00;;;;;;5190286;27;37393;-82
2024/04/20 01:45:01;;;;;;;25.03;2.97;;;7.30;1.00;;;;;;5184736;27;39412;-82
2024/04/20 01:47:28;;;;;;;14.93;3.53;;;7.30;1.00;;;;;;5180473;27;37712;-81
2024/04/20 01:49:55;;;;;;;26.07;3.43;;;7.30;1.00;;;;;;5184707;27;38737;-82
2024/04/20 01:52:21;;;;;;;16.20;3.03;;;7.30;1.00;;;;;;5181813;27;38374;-81
2024/04/20 01:54:47;;;;;;;22.47;3.77;;;7.40;1.00;;;;;;5187538;27;37811;-82
2024/04/20 01:57:13;;;;;;;17.37;3.13;;;7.30;1.00;;;;;;5171322;27;39598;-82
2024/04/20 01:59:40;;;;;;;21.07;2.97;;;7.30;1.00;;;;;;5178134;27;37549;-81
2024/04/20 02:02:06;;;;;;;20.87;3.43;;;7.30;1.00;;;;;;5177431;27;37035;-81
2024/04/20 02:04:32;;;;;;;18.87;2.53;;;7.20;1.00;;;;;;5190571;27;37463;-81
2024/04/20 02:06:58;;;;;;;16.93;2.20;;;7.30;1.00;;;;;;5188302;27;39619;-82
2024/04/20 02:09:24;;;;;;;18.97;2.63;;;7.30;1.00;;;;;;5189289;27;39776;-82
2024/04/20 02:11:50;;;;;;;16.73;3.10;;;7.30;1.00;;;;;;5189136;27;36964;-82
2024/04/20 02:14:16;;;;;;;16.23;2.17;;;7.30;1.00;;;;;;5181568;27;35969;-82
2024/04/20 02:16:42;;;;;;;20.20;3.50;;;7.30;1.00;;;;;;5182668;27;40316;-81
2024/04/20 02:19:09;;;;;;;12.80;2.70;;;7.30;1.00;;;;;;5191045;27;39269;-82
2024/04/20 02:21:35;;;;;;;19.63;3.53;;;7.30;1.00;;;;;;5187476;27;37207;-82
2024/04/20 02:24:01;;;;;;;17.20;2.33;;;7.30;1.00;;;;;;5185205;27;36154;-82
2024/04/20 02:26:27;;;;;;;14.27;2.87;;;7.30;1.00;;;;;;5186974;27;47235;-81
2024/04/20 02:28:53;;;;;;;17.70;2.67;;;7.30;1.00;;;;;;5198987;27;38045;-81
2024/04/20 02:31:20;;;;;;;17.00;3.17;;;7.20;1.00;;;;;;5189071;27;36743;-82
2024/04/20 02:33:46;;;;;;;13.73;2.80;;;7.20;1.00;;;;;;5196538;27;38188;-80
2024/04/20 02:36:12;;;;;;;14.53;1.93;;;7.20;1.00;;;;;;5197222;27;38863;-81
2024/04/20 02:38:38;;;;;;;13.97;2.70;;;7.20;1.00;;;;;;5197372;27;39846;-82
2024/04/20 02:41:04;;;;;;;18.20;2.30;;;7.20;1.00;;;;;;5199673;27;39596;-82
2024/04/20 02:43:30;;;;;;;15.23;3.27;;;7.20;1.00;;;;;;5201888;27;37790;-82
2024/04/20 02:45:56;;;;;;;9.60;2.00;;;7.20;1.00;;;;;;5199166;27;38394;-82
2024/04/20 02:48:22;;;;;;;12.37;2.20;;;7.20;1.00;;;;;;5197722;27;38157;-81
2024/04/20 02:50:49;;;;;;;14.13;2.30;;;7.20;1.00;;;;;;5197280;27;38996;-81
2024/04/20 02:53:18;;;;;;;12.37;2.70;;;7.20;1.00;;;;;;5200397;27;36315;-82
2024/04/20 02:55:44;;;;;;;19.30;3.07;;;7.20;1.00;;;;;;5204120;27;39545;-82
2024/04/20 02:58:10;;;;;;;12.93;2.10;;;7.20;1.00;;;;;;5203387;27;38088;-81
2024/04/20 03:00:36;;;;;;;17.80;2.60;;;7.20;1.00;;;;;;5204520;27;37925;-81
2024/04/20 03:03:03;;;;;;;13.20;2.30;;;7.20;1.00;;;;;;5205911;27;37241;-82
2024/04/20 03:05:29;;;;;;;13.80;3.20;;;7.20;1.00;;;;;;5199412;27;38141;-81
2024/04/20 03:07:55;;;;;;;15.47;2.37;;;7.20;1.00;;;;;;5197906;27;37119;-81
2024/04/20 03:10:21;;;;;;;11.77;2.40;;;7.20;1.00;;;;;;5198995;27;37493;-82
2024/04/20 03:12:51;;;;;;;15.50;2.53;;;7.20;1.00;;;;;;5199137;27;37334;-81
2024/04/20 03:15:17;;;;;;;14.93;2.70;;;7.20;1.00;;;;;;5202814;27;38148;-82
2024/04/20 03:17:43;;;;;;;16.73;2.20;;;7.20;1.00;;;;;;5200605;27;39302;-82
2024/04/20 03:20:09;;;;;;;17.80;3.27;;;7.20;1.00;;;;;;5196236;27;38409;-81
2024/04/20 03:22:35;;;;;;;19.33;2.77;;;7.30;1.00;;;;;;5205140;27;35723;-82
2024/04/20 03:25:02;;;;;;;10.83;2.30;;;7.20;1.00;;;;;;5220151;27;39768;-82
2024/04/20 03:27:28;;;;;;;20.83;3.43;;;7.30;1.00;;;;;;5200401;27;37608;-82
2024/04/20 03:29:54;;;;;;;17.03;3.37;;;7.30;1.00;;;;;;5201226;27;38333;-82
2024/04/20 03:32:20;;;;;;;20.13;3.10;;;7.30;1.00;;;;;;5191038;27;36118;-82
2024/04/20 03:34:46;;;;;;;19.53;2.47;;;7.30;1.00;;;;;;5197901;27;40071;-82
2024/04/20 03:37:13;;;;;;;20.90;3.13;;;7.30;1.00;;;;;;5196433;27;39164;-80
2024/04/20 03:39:40;;;;;;;21.80;3.10;;;7.30;1.00;;;;;;5196952;27;37747;-81
2024/04/20 03:42:06;;;;;;;18.10;3.87;;;7.30;1.00;;;;;;5199786;27;37486;-81
2024/04/20 03:44:38;;;;;;;16.53;3.30;;;7.30;1.00;;;;;;5198757;27;38705;-84
2024/04/20 03:47:04;;;;;;;21.30;3.03;;;7.30;1.00;;;;;;5195499;27;39323;-81
2024/04/20 03:49:32;;;;;;;21.10;3.53;;;7.30;1.00;;;;;;5198836;27;37095;-82
2024/04/20 03:51:58;;;;;;;18.97;2.97;;;7.30;1.00;;;;;;5200129;27;37373;-81
2024/04/20 03:54:24;;;;;;;15.27;2.77;;;7.30;1.00;;;;;;5202506;27;38978;-82
2024/04/20 03:56:50;;;;;;;17.73;2.83;;;7.40;1.00;;;;;;5199910;27;38958;-82
2024/04/20 03:59:16;;;;;;;20.20;3.30;;;7.30;1.00;;;;;;5195600;27;38508;-82
2024/04/20 04:01:42;;;;;;;11.57;2.77;;;7.20;1.00;;;;;;5199114;27;37468;-82
2024/04/20 04:04:08;;;;;;;14.30;2.77;;;7.30;1.00;;;;;;5190578;27;39012;-80
2024/04/20 04:06:34;;;;;;;19.83;2.67;;;7.30;1.00;;;;;;5175758;27;37125;-81
2024/04/20 04:09:00;;;;;;;17.27;2.73;;;7.30;1.00;;;;;;5178005;27;37152;-81
2024/04/20 04:11:27;;;;;;;17.03;3.23;;;7.30;1.00;;;;;;5195000;27;49285;-82
2024/04/20 04:13:53;;;;;;;12.10;2.77;;;7.20;1.00;;;;;;5193464;27;38991;-82
2024/04/20 04:16:19;;;;;;;13.37;2.40;;;7.20;1.00;;;;;;5195436;27;38305;-82
2024/04/20 04:18:46;;;;;;;11.83;2.10;;;7.30;1.00;;;;;;5197225;27;37118;-81
2024/04/20 04:21:18;;;;;;;22.80;3.40;;;7.30;1.00;;;;;;5195518;27;36377;-82
2024/04/20 04:23:44;;;;;;;15.13;2.72;;;7.30;1.00;;;;;;5197892;27;39904;-81
2024/04/20 04:26:12;;;;;;;14.83;2.27;;;7.30;1.00;;;;;;5189951;27;38798;-82
2024/04/20 04:28:38;;;;;;;19.77;2.37;;;7.30;1.00;;;;;;5185487;27;38877;-82
2024/04/20 04:31:04;;;;;;;15.40;2.10;;;7.30;1.00;;;;;;5193799;27;38904;-82
2024/04/20 04:33:37;;;;;;;9.80;1.57;;;7.20;1.00;;;;;;5192387;27;39151;-82
2024/04/20 04:36:04;;;;;;;15.60;2.10;;;7.10;1.00;;;;;;5196219;27;38391;-82
2024/04/20 04:38:31;;;;;;;11.63;2.47;;;7.10;1.00;;;;;;5198739;27;38886;-81
2024/04/20 04:40:57;;;;;;;12.57;2.30;;;6.90;1.00;;;;;;5190761;27;38020;-82
2024/04/20 04:43:23;;;;;;;8.23;1.30;;;6.90;1.00;;;;;;5195065;27;38462;-83
2024/04/20 04:45:56;;;;;;;9.80;1.80;;;7.00;1.00;;;;;;5189993;27;39096;-82
2024/04/20 04:48:23;;;;;;;10.73;1.50;;;6.80;1.00;;;;;;5213281;27;39847;-83
2024/04/20 04:50:49;;;;;;;13.57;2.43;;;6.80;1.00;;;;;;5203468;27;37369;-82
2024/04/20 04:53:15;;;;;;;9.93;1.97;;;6.80;1.00;;;;;;5197067;27;38425;-82
2024/04/20 04:55:41;;;;;;;13.97;2.30;;;6.80;1.00;;;;;;5192389;27;39059;-82
2024/04/20 04:58:07;;;;;;;9.90;1.53;;;6.70;1.00;;;;;;5193271;27;36868;-81
2024/04/20 05:00:33;;;;;;;9.13;1.97;;;6.70;1.00;;;;;;5197321;27;36325;-83
2024/04/20 05:03:00;;;;;;;14.37;1.67;;;6.70;1.00;;;;;;5193131;27;38855;-81
2024/04/20 05:05:26;;;;;;;11.77;1.80;;;6.60;1.00;;;;;;5188649;27;36941;-81
2024/04/20 05:07:52;;;;;;;13.03;2.30;;;6.60;1.00;;;;;;5186583;27;36521;-82
2024/04/20 05:10:19;;;;;;;14.40;2.10;;;6.60;1.00;;;;;;5203034;27;38498;-82
2024/04/20 05:12:46;;;;;;;6.43;1.37;;;6.60;1.00;;;;;;5178597;27;38685;-82
2024/04/20 05:15:12;;;;;;;14.03;2.03;;;6.60;1.00;;;;;;5182279;27;37863;-82
2024/04/20 05:17:39;;;;;;;11.60;2.10;;;6.60;1.00;;;;;;5173239;27;36833;-82
2024/04/20 05:20:09;;;;;;;10.30;1.90;;;6.60;1.00;;;;;;5178054;27;37729;-81
2024/04/20 05:22:35;;;;;;;9.07;2.07;;;6.60;1.00;;;;;;5185577;27;38400;-82
2024/04/20 05:25:02;;;;;;;6.83;1.33;;;6.60;1.00;;;;;;5181880;27;36832;-82
2024/04/20 05:27:28;;;;;;;13.67;2.00;;;6.60;1.00;;;;;;5186764;27;38225;-82
2024/04/20 05:29:54;;;;;;;9.57;1.77;;;6.60;1.00;;;;;;5186034;27;38445;-82
2024/04/20 05:32:20;;;;;;;11.23;2.13;;;6.50;1.00;;;;;;5171203;27;39173;-82
2024/04/20 05:34:48;;;;;;;13.23;1.90;;;6.30;1.00;;;;;;5182807;27;36862;-82
2024/04/20 05:37:14;;;;;;;13.37;1.97;;;6.20;14.90;;;;;;5188743;27;38088;-82
2024/04/20 05:39:40;;;;;;;11.10;1.97;;;6.20;32.50;;;;;;5193303;27;35984;-82
2024/04/20 05:42:07;;;;;;;9.43;1.77;;;6.20;45.10;;;;;;5190240;27;39405;-82
2024/04/20 05:44:33;;;;;;;13.33;2.03;;;6.30;50.00;;;;;;5188339;27;38033;-82
2024/04/20 05:46:59;;;;;;;12.27;2.67;;;6.30;56.40;;;;;;5182997;27;36965;-82
2024/04/20 05:49:25;;;;;;;12.17;1.60;;;6.30;59.10;;;;;;5192681;27;39899;-82
2024/04/20 05:51:51;;;;;;;17.97;1.83;;;6.30;68.20;;;;;;5194489;27;37065;-82
2024/04/20 05:54:20;;;;;;;15.37;2.43;;;6.40;78.70;;;;;;5196746;27;38248;-82
2024/04/20 05:56:46;;;;;;;22.03;2.67;;;6.40;76.90;;;;;;5192957;27;36769;-82
2024/04/20 05:59:12;;;;;;;17.43;3.60;;;6.40;80.40;;;;;;5187501;27;37669;-82
2024/04/20 06:01:38;;;;;;;13.30;2.33;;;6.40;50.40;;;;;;5192158;27;37529;-81
2024/04/20 06:04:04;;;;;;;15.50;2.30;;;6.50;43.70;;;;;;5191442;27;39261;-81
2024/04/20 06:06:30;;;;;;;10.47;2.40;;;6.50;25.70;;;;;;5191637;27;36974;-82
2024/04/20 06:08:56;;;;;;;8.80;2.03;;;6.60;28.90;;;;;;5192586;27;37302;-82
2024/04/20 06:11:23;;;;;;;13.23;1.87;;;6.60;16.90;;;;;;5187705;27;39467;-81
2024/04/20 06:13:49;;;;;;;13.63;2.23;;;6.60;29.40;;;;;;5184681;27;38542;-82
2024/04/20 06:16:15;;;;;;;9.93;2.30;;;6.50;36.60;;;;;;5187778;27;36925;-81
2024/04/20 06:19:06;;;;;;;17.03;2.00;;;6.40;19.80;;;;;;5194549;27;34788;-82
2024/04/20 06:21:33;;;;;;;19.93;2.87;;;6.30;23.50;;;;;;5172122;27;47366;-82
2024/04/20 06:23:59;;;;;;;14.63;3.00;;;6.30;27.80;;;;;;5190578;27;38869;-82
2024/04/20 06:26:26;;;;;;;13.60;2.57;;;6.30;37.50;;;;;;5191836;27;36583;-83
2024/04/20 06:28:52;;;;;;;22.23;2.60;;;6.40;43.70;;;;;;5190164;27;36100;-82
2024/04/20 06:31:19;;;;;;;21.03;2.97;;;6.50;38.10;;;;;;5187857;27;39450;-81
2024/04/20 06:33:47;;;;;;;16.63;2.83;;;6.60;31.60;;;;;;5185766;27;38823;-81
2024/04/20 06:36:16;;;;;;;16.53;2.60;;;6.60;24.50;;;;;;5187624;27;36965;-82
2024/04/20 06:38:42;;;;;;;17.83;2.57;;;6.70;18.60;;;;;;5187604;27;37607;-81
2024/04/20 06:41:08;;;;;;;12.43;2.80;;;6.70;12.10;;;;;;5186125;27;36844;-82
2024/04/20 06:43:34;;;;;;;20.87;3.37;;;6.70;4.50;;;;;;5181208;27;37713;-83
2024/04/20 06:46:01;;;;;;;21.07;2.93;;;6.70;1.00;;;;;;5191130;27;38785;-81
2024/04/20 06:48:28;;;;;;;24.23;3.90;;;6.70;1.00;;;;;;5179905;27;47428;-81
2024/04/20 06:50:54;;;;;;;31.30;3.57;;;6.80;1.00;;;;;;5198029;27;37686;-82
2024/04/20 06:53:20;;;;;;;24.43;3.23;;;6.80;1.00;;;;;;5192786;27;39094;-82
2024/04/20 06:55:55;;;;;;;23.20;3.80;;;6.80;1.00;;;;;;5199855;27;37889;-82
2024/04/20 06:58:21;;;;;;;23.57;3.17;;;6.80;1.00;;;;;;5198604;27;38688;-82
2024/04/20 07:00:48;;;;;;;20.10;3.63;;;6.90;1.00;;;;;;5199516;27;38849;-82
2024/04/20 07:03:14;;;;;;;23.77;3.70;;;7.00;1.00;;;;;;5198092;27;39542;-82
2024/04/20 07:05:40;;;;;;;17.73;2.93;;;7.10;1.00;;;;;;5203443;27;38600;-82
2024/04/20 07:08:07;;;;;;;18.30;2.93;;;7.20;1.00;;;;;;5211640;27;35910;-81
2024/04/20 07:10:33;;;;;;;20.93;3.37;;;7.40;1.00;;;;;;5209482;27;38928;-81
2024/04/20 07:13:03;;;;;;;26.97;3.17;;;7.40;1.00;;;;;;5206375;27;38679;-83
2024/04/20 07:15:32;;;;;;;17.57;3.33;;;7.40;1.00;;;;;;5199171;27;48671;-82
2024/04/20 07:17:59;;;;;;;22.37;2.80;;;7.50;1.00;;;;;;5204836;27;38731;-83
2024/04/20 07:20:25;;;;;;;18.53;3.30;;;7.60;1.00;;;;;;5199870;27;39809;-82
2024/04/20 07:22:51;;;;;;;18.50;2.80;;;7.90;1.00;;;;;;5198052;27;39835;-82
2024/04/20 07:25:17;;;;;;;13.60;2.63;;;8.10;1.00;;;;;;5192119;27;38573;-82
2024/04/20 07:27:44;;;;;;;15.60;2.97;;;8.20;1.00;;;;;;5182473;27;36149;-82
2024/04/20 07:30:10;;;;;;;16.60;2.80;;;8.50;1.00;;;;;;5194712;27;38957;-82
2024/04/20 07:32:39;;;;;;;12.97;2.40;;;8.70;1.00;;;;;;5195126;27;39022;-80
2024/04/20 07:35:05;;;;;;;14.13;2.53;;;8.80;1.00;;;;;;5185781;27;39460;-80
2024/04/20 07:37:31;;;;;;;11.90;2.57;;;9.00;1.00;;;;;;5197805;27;37781;-81
2024/04/20 07:40:00;;;;;;;14.67;2.37;;;9.10;1.00;;;;;;5195632;27;38913;-80
2024/04/20 07:42:26;;;;;;;13.47;2.30;;;9.10;1.00;;;;;;5188612;27;38799;-80
2024/04/20 07:44:52;;;;;;;17.57;2.80;;;9.30;1.00;;;;;;5180814;27;39172;-80
2024/04/20 07:47:19;;;;;;;13.07;2.70;;;9.60;1.00;;;;;;5186726;27;37376;-80
2024/04/20 07:49:45;;;;;;;16.67;3.13;;;9.60;1.00;;;;;;5193221;27;37448;-80
2024/04/20 07:52:11;;;;;;;22.63;4.03;;;9.50;99.90;;;;;;5197524;27;38390;-79
2024/04/20 07:54:37;;;;;;;13.57;2.30;;;9.30;99.90;;;;;;5192969;27;36883;-79
2024/04/20 07:57:04;;;;;;;17.90;2.60;;;9.00;1.00;;;;;;5172600;27;37103;-81
2024/04/20 07:59:30;;;;;;;11.33;2.27;;;8.80;1.00;;;;;;5183348;27;39258;-81
2024/04/20 08:01:57;;;;;;;15.33;2.07;;;8.40;1.00;;;;;;5180907;27;38581;-82
2024/04/20 08:04:23;;;;;;;15.47;2.10;;;7.90;1.00;;;;;;5170153;27;40546;-82
2024/04/20 08:06:51;;;;;;;10.93;2.07;;;7.50;1.00;;;;;;5174258;27;36255;-82
2024/04/20 08:09:17;;;;;;;12.23;1.87;;;7.50;1.00;;;;;;5178469;27;39274;-81
2024/04/20 08:11:48;;;;;;;15.07;2.80;;;7.30;1.00;;;;;;5182404;27;38059;-82
2024/04/20 08:14:14;;;;;;;16.33;2.30;;;7.40;1.00;;;;;;5194087;27;38196;-82
2024/04/20 08:16:40;;;;;;;10.97;2.07;;;7.60;1.00;;;;;;5180201;27;36112;-82
2024/04/20 08:19:07;;;;;;;16.03;2.37;;;7.80;1.00;;;;;;5179589;27;39204;-82
2024/04/20 08:21:33;;;;;;;16.47;3.00;;;8.00;1.00;;;;;;5184300;27;38918;-81
2024/04/20 08:24:00;;;;;;;15.13;2.67;;;8.10;1.00;;;;;;5191958;27;38036;-81
2024/04/20 08:26:31;;;;;;;12.13;3.00;;;8.20;1.00;;;;;;5171913;27;36920;-81
2024/04/20 08:28:57;;;;;;;14.80;2.33;;;8.20;99.90;;;;;;5181672;27;37570;-81
2024/04/20 08:31:24;;;;;;;12.63;2.23;;;8.40;99.90;;;;;;5179930;27;40446;-82
2024/04/20 08:33:50;;;;;;;20.57;2.57;;;8.60;1.00;;;;;;5189627;27;38774;-80
2024/04/20 08:36:16;;;;;;;15.17;1.90;;;8.60;1.00;;;;;;5193197;27;36515;-82
2024/04/20 08:38:42;;;;;;;10.40;2.03;;;8.90;1.00;;;;;;5180344;27;40252;-79
2024/04/20 08:41:15;;;;;;;13.20;2.87;;;9.00;1.00;;;;;;5182559;27;37969;-80
2024/04/20 08:43:42;;;;;;;18.67;2.70;;;9.20;1.00;;;;;;5178936;27;39175;-79
2024/04/20 08:46:19;;;;;;;13.38;2.47;;;9.40;1.00;;;;;;5168052;27;37685;-77
2024/04/20 08:48:47;;;;;;;17.00;2.60;;;9.50;1.00;;;;;;5162152;27;39927;-79
2024/04/20 08:51:16;;;;;;;13.87;2.43;;;9.50;99.90;;;;;;5176756;27;40056;-80
2024/04/20 08:53:45;;;;;;;10.17;2.13;;;9.50;49.50;;;;;;5185554;27;39656;-79
2024/04/20 08:56:11;;;;;;;11.43;2.00;;;9.60;1.00;;;;;;5183914;27;37511;-79
2024/04/20 08:58:38;;;;;;;16.92;2.55;;;9.60;1.00;;;;;;5181523;27;39527;-79
2024/04/20 09:01:08;;;;;;;13.07;1.98;;;9.50;1.00;;;;;;5177332;27;38560;-79
2024/04/20 09:03:34;;;;;;;14.75;1.90;;;9.60;99.90;;;;;;5182619;27;37036;-79
2024/04/20 09:06:01;;;;;;;8.18;1.60;;;9.70;99.90;;;;;;5184816;27;37421;-79
2024/04/20 09:08:28;;;;;;;13.57;2.88;;;9.70;1.00;;;;;;5179104;27;48018;-78
2024/04/20 09:10:54;;;;;;;12.20;1.80;;;9.80;1.00;;;;;;5165311;27;38713;-79
2024/04/20 09:13:20;;;;;;;14.77;2.47;;;9.90;1.00;;;;;;5179450;27;37978;-79
2024/04/20 09:15:48;;;;;;;10.18;1.60;;;9.70;99.90;;;;;;5174710;27;38031;-80
2024/04/20 09:18:19;;;;;;;8.88;1.50;;;9.90;1.00;;;;;;5181022;27;37517;-79
2024/04/20 09:20:50;;;;;;;8.40;1.90;;;10.30;99.90;;;;;;5161123;27;38972;-81
2024/04/20 09:23:22;;;;;;;7.65;2.13;;;10.60;99.90;;;;;;5180201;27;38192;-79
2024/04/20 09:25:54;;;;;;;8.07;1.67;;;10.70;1.00;;;;;;5178119;27;36056;-79
2024/04/20 09:28:22;;;;;;;13.07;2.47;;;11.10;99.90;;;;;;5181832;27;39112;-79
2024/04/20 09:30:51;;;;;;;11.75;2.40;;;11.40;1.00;;;;;;5180921;27;38506;-79
2024/04/20 09:33:17;;;;;;;13.90;2.25;;;11.70;1.00;;;;;;5172538;27;37175;-79
2024/04/20 09:35:43;;;;;;;16.38;2.63;;;11.80;1.00;;;;;;5171661;27;38814;-80
2024/04/20 09:38:10;;;;;;;12.07;2.40;;;12.00;1.00;;;;;;5176196;27;37322;-82
2024/04/20 09:40:36;;;;;;;12.70;2.53;;;11.70;53.90;;;;;;5177747;27;37438;-79
2024/04/20 09:43:04;;;;;;;13.38;2.50;;;11.20;7.60;;;;;;5181136;27;38453;-79
2024/04/20 09:45:31;;;;;;;12.88;2.35;;;10.70;1.00;;;;;;5179406;27;47443;-80
2024/04/20 09:47:59;;;;;;;9.85;2.13;;;10.40;1.00;;;;;;5177602;27;39038;-80
2024/04/20 09:50:28;;;;;;;11.88;1.85;;;10.50;1.00;;;;;;5178946;27;38972;-78
2024/04/20 09:53:01;;;;;;;8.20;1.35;;;10.20;1.00;;;;;;5178227;27;37997;-79
2024/04/20 09:55:29;;;;;;;10.20;1.65;;;10.10;1.00;;;;;;5174892;27;47751;-79
2024/04/20 09:58:03;;;;;;;11.02;1.50;;;9.90;35.80;;;;;;5174525;27;37489;-79
2024/04/20 10:00:35;;;;;;;11.88;1.88;;;10.20;99.90;;;;;;5182157;27;49910;-79
2024/04/20 10:03:05;;;;;;;12.90;1.75;;;10.20;99.90;;;;;;5179683;27;39469;-79
2024/04/20 10:05:35;;;;;;;15.23;2.92;;;10.30;40.80;;;;;;5185194;27;47148;-79
2024/04/20 10:08:03;;;;;;;10.25;1.88;;;10.00;1.00;;;;;;5175644;27;37738;-79
2024/04/20 10:10:30;;;;;;;8.80;1.63;;;10.00;99.90;;;;;;5175495;27;47560;-77
2024/04/20 10:13:02;;;;;;;9.45;2.03;;;10.30;1.00;;;;;;5183047;27;37832;-79
2024/04/20 10:15:34;;;;;;;18.48;2.35;;;10.60;99.90;;;;;;5170595;27;48917;-79
2024/04/20 10:18:01;;;;;;;9.35;1.88;;;11.20;1.00;;;;;;5163893;27;39155;-78
2024/04/20 10:20:35;;;;;;;13.18;1.90;;;11.00;1.00;;;;;;5176254;27;47744;-80
2024/04/20 10:23:18;;;;;;;9.50;1.60;;;10.60;1.00;;;;;;5178860;27;38761;-80
2024/04/20 10:25:53;;;;;;;11.18;2.30;;;10.30;1.00;;;;;;5182422;27;47260;-79
2024/04/20 10:28:27;;;;;;;9.07;1.70;;;10.20;99.90;;;;;;5180240;27;39094;-80
2024/04/20 10:30:57;;;;;;;13.05;2.25;;;10.20;1.00;;;;;;5179578;27;38542;-80
2024/04/20 10:33:30;;;;;;;8.05;1.58;;;10.50;1.00;;;;;;5178551;27;37854;-79
2024/04/20 10:35:58;;;;;;;9.77;1.50;;;10.70;99.90;;;;;;5175382;27;37531;-80
2024/04/20 10:38:30;;;;;;;6.30;1.67;;;10.90;1.00;;;;;;5171370;27;39934;-80
2024/04/20 10:40:57;;;;;;;;;;;11.10;1.00;;;;;;5184830;27;39880;-79
2024/04/20 10:43:25;;;;;;;7.50;1.30;;;11.20;71.80;;;;;;5183244;27;39826;-79
2024/04/20 10:46:05;;;;;;;6.95;1.40;;;11.70;8.50;;;;;;5179235;27;36862;-80
2024/04/20 10:48:35;;;;;;;7.10;1.10;;;11.20;99.90;;;;;;5165958;27;47822;-78
2024/04/20 10:51:10;;;;;;;7.30;1.40;;;10.20;99.90;;;;;;5161675;27;38865;-79
2024/04/20 10:53:39;;;;;;;5.18;0.90;;;9.50;1.00;;;;;;5151855;27;47922;-79
2024/04/20 10:56:08;;;;;;;3.97;0.80;;;8.90;1.00;;;;;;5167652;27;36508;-80
2024/04/20 10:58:37;;;;;;;4.13;1.03;;;8.80;1.00;;;;;;5171711;27;39051;-80
2024/04/20 11:01:04;;;;;;;5.40;1.00;;;8.90;1.00;;;;;;5184807;27;36932;-79
2024/04/20 11:03:39;;;;;;;6.22;1.10;;;9.00;1.00;;;;;;5191699;27;37906;-80
2024/04/20 11:06:07;;;;;;;4.75;1.40;;;9.30;1.00;;;;;;5184416;27;37343;-79
2024/04/20 11:08:38;;;;;;;10.48;1.85;;;9.70;1.00;;;;;;5186523;27;39189;-80
2024/04/20 11:11:05;;;;;;;7.45;1.35;;;9.90;1.00;;;;;;5185224;27;38935;-80
2024/04/20 11:13:32;;;;;;;4.35;1.25;;;10.20;1.00;;;;;;5182531;27;38624;-80
2024/04/20 11:15:59;;;;;;;9.13;1.55;;;10.20;1.00;;;;;;5185110;27;35818;-79
2024/04/20 11:18:26;;;;;;;7.07;1.35;;;10.30;1.00;;;;;;5185093;27;39209;-80
2024/04/20 11:20:52;;;;;;;11.82;1.98;;;10.40;1.00;;;;;;5191072;27;38629;-80
2024/04/20 11:23:18;;;;;;;9.30;1.67;;;10.40;1.00;;;;;;5194559;27;39524;-79
2024/04/20 11:25:56;;;;;;;10.02;1.83;;;10.40;99.90;;;;;;5187079;27;35968;-81
2024/04/20 11:28:23;;;;;;;7.40;2.00;;;10.60;99.90;;;;;;5193037;27;38888;-79
2024/04/20 11:30:50;;;;;;;11.55;3.72;;;10.30;1.00;;;;;;5188210;27;37074;-80
2024/04/20 11:33:17;;;;;;;12.40;2.00;;;10.20;1.00;;;;;;5187317;27;37058;-80
2024/04/20 11:35:50;;;;;;;11.43;2.25;;;9.90;1.00;;;;;;5184248;27;36867;-79
2024/04/20 11:38:17;;;;;;;10.45;1.85;;;9.60;1.00;;;;;;5191418;27;39661;-80
2024/04/20 11:40:50;;;;;;;15.40;2.43;;;9.30;1.00;;;;;;5189289;27;36603;-80
2024/04/20 11:43:25;;;;;;;15.53;2.47;;;9.10;1.00;;;;;;5185664;27;37804;-80
2024/04/20 11:45:57;;;;;;;15.33;2.27;;;9.10;1.00;;;;;;5192163;27;37581;-82
2024/04/20 11:48:30;;;;;;;16.05;2.78;;;9.10;1.00;;;;;;5198107;27;39408;-80
2024/04/20 11:51:05;;;;;;;12.87;2.47;;;9.40;1.10;;;;;;5195698;27;39720;-79
2024/04/20 11:56:19;;;;;;;14.05;2.35;;;10.30;1.00;;;;;;5203486;27;39712;-82
2024/04/20 11:58:51;;;;;;;14.13;2.10;;;10.90;1.00;;;;;;5195129;27;37862;-80
2024/04/20 12:01:18;;;;;;;11.65;2.00;;;10.70;1.00;;;;;;5186079;27;37738;-81
2024/04/20 12:03:46;;;;;;;10.60;1.70;;;10.40;1.00;;;;;;5191869;27;38878;-81
2024/04/20 12:06:12;;;;;;;8.30;1.70;;;10.20;1.00;;;;;;5197816;27;36140;-80
2024/04/20 12:08:42;;;;;;;10.52;1.63;;;10.20;1.00;;;;;;5178156;27;39325;-80
2024/04/20 12:11:08;;;;;;;13.87;2.03;;;10.30;1.00;;;;;;5181859;27;41433;-81
2024/04/20 12:13:35;;;;;;;5.22;1.30;;;10.20;99.90;;;;;;5183492;27;37954;-80
2024/04/20 12:16:02;;;;;;;10.77;1.58;;;10.30;1.00;;;;;;5184021;27;37055;-80
2024/04/20 12:18:28;;;;;;;5.68;1.67;;;10.70;99.90;;;;;;5189738;27;47942;-80
2024/04/20 12:20:54;;;;;;;8.63;1.45;;;10.80;99.90;;;;;;5182797;27;38230;-80
2024/04/20 12:23:20;;;;;;;9.25;1.88;;;11.10;1.00;;;;;;5182507;27;36731;-80
2024/04/20 12:25:50;;;;;;;11.23;1.52;;;11.30;99.90;;;;;;5188003;27;37150;-80
2024/04/20 12:28:17;;;;;;;9.15;2.08;;;11.40;1.00;;;;;;5182428;27;38097;-79
2024/04/20 12:30:44;;;;;;;10.95;1.80;;;11.80;1.00;;;;;;5186399;27;38553;-80
2024/04/20 12:33:10;;;;;;;9.93;2.05;;;12.10;99.90;;;;;;5190832;27;38433;-80
2024/04/20 12:35:36;;;;;;;11.63;2.55;;;11.70;1.00;;;;;;5182402;27;37554;-79
2024/04/20 12:38:04;;;;;;;7.93;2.03;;;11.70;1.00;;;;;;5175458;27;37510;-79
2024/04/20 12:40:30;;;;;;;9.43;1.80;;;11.80;1.00;;;;;;5182402;27;38615;-79
2024/04/20 12:42:56;;;;;;;13.00;2.05;;;11.80;1.00;;;;;;5189346;27;38450;-80
2024/04/20 12:45:29;;;;;;;12.32;1.90;;;12.20;99.90;;;;;;5185273;27;37371;-80
2024/04/20 12:47:59;;;;;;;9.15;1.67;;;12.20;1.00;;;;;;5196418;27;39087;-80
2024/04/20 12:50:26;;;;;;;11.88;1.90;;;12.00;1.00;;;;;;5192588;27;38989;-80
2024/04/20 12:52:52;;;;;;;11.05;2.13;;;11.70;1.00;;;;;;5183041;27;36980;-80
2024/04/20 12:55:18;;;;;;;19.33;2.10;;;11.30;99.90;;;;;;5187559;27;38055;-80
2024/04/20 12:57:48;;;;;;;7.93;1.63;;;10.70;1.00;;;;;;5184700;27;38232;-80
2024/04/20 13:00:15;;;;;;;9.88;1.60;;;10.20;1.00;;;;;;5183202;27;39261;-80
2024/04/20 13:02:43;;;;;;;11.45;2.13;;;10.00;1.00;;;;;;5182565;27;38001;-80